sensor_id;sensor_type;location;lat;lon;timestamp;P1;durP1;ratioP1;P2;durP2;ratioP2
46308;SDS011;32037;50.820;6.494;2022-09-01T00:01:48;4.30;;;3.30;;
46308;SDS011;32037;50.820;6.494;2022-09-01T00:04:18;3.27;;;2.97;;
46308;SDS011;32037;50.820;6.494;2022-09-01T00:06:48;3.10;;;2.90;;
46308;SDS011;32037;50.820;6.494;2022-09-01T00:09:17;3.20;;;2.90;;
46308;SDS011;32037;50.820;6.494;2022-09-01T00:11:49;2.77;;;2.60;;
46308;SDS011;32037;50.820;6.494;2022-09-01T00:14:19;3.20;;;3.00;;
46308;SDS011;32037;50.820;6.494;2022-09-01T00:16:58;2.67;;;2.47;;
46308;SDS011;32037;50.820;6.494;2022-09-01T00:19:27;3.20;;;3.00;;
46308;SDS011;32037;50.820;6.494;2022-09-01T00:21:56;2.90;;;2.70;;
46308;SDS011;32037;50.820;6.494;2022-09-01T00:24:25;3.30;;;3.10;;
46308;SDS011;32037;50.820;6.494;2022-09-01T00:26:55;3.00;;;2.80;;
46308;SDS011;32037;50.820;6.494;2022-09-01T00:29:24;3.53;;;3.23;;
46308;SDS011;32037;50.820;6.494;2022-09-01T00:31:53;2.97;;;2.77;;
46308;SDS011;32037;50.820;6.494;2022-09-01T00:34:22;3.20;;;3.00;;
46308;SDS011;32037;50.820;6.494;2022-09-01T00:36:51;3.53;;;3.17;;
46308;SDS011;32037;50.820;6.494;2022-09-01T00:39:19;2.93;;;2.73;;
46308;SDS011;32037;50.820;6.494;2022-09-01T00:41:49;3.90;;;2.80;;
46308;SDS011;32037;50.820;6.494;2022-09-01T00:44:18;2.70;;;2.50;;
46308;SDS011;32037;50.820;6.494;2022-09-01T00:46:50;3.20;;;3.00;;
46308;SDS011;32037;50.820;6.494;2022-09-01T00:49:25;3.20;;;3.00;;
46308;SDS011;32037;50.820;6.494;2022-09-01T00:52:01;3.00;;;2.80;;
46308;SDS011;32037;50.820;6.494;2022-09-01T00:54:34;2.63;;;2.43;;
46308;SDS011;32037;50.820;6.494;2022-09-01T00:57:06;2.87;;;2.50;;
46308;SDS011;32037;50.820;6.494;2022-09-01T00:59:36;3.33;;;3.10;;
46308;SDS011;32037;50.820;6.494;2022-09-01T01:02:08;2.90;;;2.47;;
46308;SDS011;32037;50.820;6.494;2022-09-01T01:04:38;2.73;;;2.53;;
46308;SDS011;32037;50.820;6.494;2022-09-01T01:07:09;2.73;;;2.53;;
46308;SDS011;32037;50.820;6.494;2022-09-01T01:09:40;3.10;;;2.90;;
46308;SDS011;32037;50.820;6.494;2022-09-01T01:12:11;2.80;;;2.60;;
46308;SDS011;32037;50.820;6.494;2022-09-01T01:14:44;2.57;;;2.37;;
46308;SDS011;32037;50.820;6.494;2022-09-01T01:17:16;2.57;;;2.37;;
46308;SDS011;32037;50.820;6.494;2022-09-01T01:19:50;3.20;;;2.90;;
46308;SDS011;32037;50.820;6.494;2022-09-01T01:22:40;3.73;;;3.43;;
46308;SDS011;32037;50.820;6.494;2022-09-01T01:25:37;3.40;;;2.83;;
46308;SDS011;32037;50.820;6.494;2022-09-01T01:28:10;3.67;;;3.40;;
46308;SDS011;32037;50.820;6.494;2022-09-01T01:30:42;3.33;;;3.07;;
46308;SDS011;32037;50.820;6.494;2022-09-01T01:33:18;2.77;;;2.57;;
46308;SDS011;32037;50.820;6.494;2022-09-01T01:35:50;3.13;;;2.83;;
46308;SDS011;32037;50.820;6.494;2022-09-01T01:38:23;3.23;;;3.03;;
46308;SDS011;32037;50.820;6.494;2022-09-01T01:40:55;3.37;;;3.07;;
46308;SDS011;32037;50.820;6.494;2022-09-01T01:43:23;3.20;;;3.00;;
46308;SDS011;32037;50.820;6.494;2022-09-01T01:45:55;3.00;;;2.80;;
46308;SDS011;32037;50.820;6.494;2022-09-01T01:48:33;3.07;;;2.87;;
46308;SDS011;32037;50.820;6.494;2022-09-01T01:51:05;4.13;;;3.27;;
46308;SDS011;32037;50.820;6.494;2022-09-01T01:53:34;3.07;;;2.87;;
46308;SDS011;32037;50.820;6.494;2022-09-01T01:56:04;4.30;;;3.23;;
46308;SDS011;32037;50.820;6.494;2022-09-01T01:58:35;2.80;;;2.60;;
46308;SDS011;32037;50.820;6.494;2022-09-01T02:01:09;2.77;;;2.57;;
46308;SDS011;32037;50.820;6.494;2022-09-01T02:03:38;3.20;;;3.00;;
46308;SDS011;32037;50.820;6.494;2022-09-01T02:06:08;3.37;;;3.17;;
46308;SDS011;32037;50.820;6.494;2022-09-01T02:08:39;3.20;;;2.90;;
46308;SDS011;32037;50.820;6.494;2022-09-01T02:11:09;3.40;;;3.10;;
46308;SDS011;32037;50.820;6.494;2022-09-01T02:13:38;3.40;;;3.20;;
46308;SDS011;32037;50.820;6.494;2022-09-01T02:16:07;3.23;;;3.03;;
46308;SDS011;32037;50.820;6.494;2022-09-01T02:18:40;3.10;;;2.90;;
46308;SDS011;32037;50.820;6.494;2022-09-01T02:21:14;3.07;;;2.87;;
46308;SDS011;32037;50.820;6.494;2022-09-01T02:23:46;3.37;;;3.10;;
46308;SDS011;32037;50.820;6.494;2022-09-01T02:26:17;3.23;;;3.03;;
46308;SDS011;32037;50.820;6.494;2022-09-01T02:28:49;2.93;;;2.73;;
46308;SDS011;32037;50.820;6.494;2022-09-01T02:31:24;3.50;;;3.20;;
46308;SDS011;32037;50.820;6.494;2022-09-01T02:33:57;3.37;;;3.07;;
46308;SDS011;32037;50.820;6.494;2022-09-01T02:36:26;3.50;;;3.20;;
46308;SDS011;32037;50.820;6.494;2022-09-01T02:38:59;3.77;;;3.10;;
46308;SDS011;32037;50.820;6.494;2022-09-01T02:41:29;3.27;;;2.87;;
46308;SDS011;32037;50.820;6.494;2022-09-01T02:44:00;3.50;;;3.20;;
46308;SDS011;32037;50.820;6.494;2022-09-01T02:46:30;3.70;;;3.40;;
46308;SDS011;32037;50.820;6.494;2022-09-01T02:48:58;3.50;;;3.20;;
46308;SDS011;32037;50.820;6.494;2022-09-01T02:51:28;3.23;;;3.03;;
46308;SDS011;32037;50.820;6.494;2022-09-01T02:53:57;6.23;;;3.97;;
46308;SDS011;32037;50.820;6.494;2022-09-01T02:56:26;3.20;;;3.00;;
46308;SDS011;32037;50.820;6.494;2022-09-01T02:58:56;3.07;;;2.87;;
46308;SDS011;32037;50.820;6.494;2022-09-01T03:01:26;3.47;;;3.13;;
46308;SDS011;32037;50.820;6.494;2022-09-01T03:03:59;3.30;;;3.10;;
46308;SDS011;32037;50.820;6.494;2022-09-01T03:06:29;3.30;;;2.80;;
46308;SDS011;32037;50.820;6.494;2022-09-01T03:09:00;3.70;;;3.00;;
46308;SDS011;32037;50.820;6.494;2022-09-01T03:11:32;2.77;;;2.57;;
46308;SDS011;32037;50.820;6.494;2022-09-01T03:14:02;3.50;;;3.20;;
46308;SDS011;32037;50.820;6.494;2022-09-01T03:16:30;3.37;;;3.07;;
46308;SDS011;32037;50.820;6.494;2022-09-01T03:18:59;2.80;;;2.60;;
46308;SDS011;32037;50.820;6.494;2022-09-01T03:21:29;3.00;;;2.80;;
46308;SDS011;32037;50.820;6.494;2022-09-01T03:23:58;3.57;;;3.03;;
46308;SDS011;32037;50.820;6.494;2022-09-01T03:26:29;3.40;;;3.10;;
46308;SDS011;32037;50.820;6.494;2022-09-01T03:28:59;3.73;;;3.43;;
46308;SDS011;32037;50.820;6.494;2022-09-01T03:31:28;2.90;;;2.70;;
46308;SDS011;32037;50.820;6.494;2022-09-01T03:34:00;3.07;;;2.87;;
46308;SDS011;32037;50.820;6.494;2022-09-01T03:36:32;3.30;;;3.10;;
46308;SDS011;32037;50.820;6.494;2022-09-01T03:39:01;3.20;;;3.00;;
46308;SDS011;32037;50.820;6.494;2022-09-01T03:41:32;3.17;;;2.97;;
46308;SDS011;32037;50.820;6.494;2022-09-01T03:44:03;3.17;;;2.93;;
46308;SDS011;32037;50.820;6.494;2022-09-01T03:46:32;3.03;;;2.83;;
46308;SDS011;32037;50.820;6.494;2022-09-01T03:49:03;3.93;;;3.70;;
46308;SDS011;32037;50.820;6.494;2022-09-01T03:51:36;3.60;;;3.30;;
46308;SDS011;32037;50.820;6.494;2022-09-01T03:54:07;3.20;;;3.00;;
46308;SDS011;32037;50.820;6.494;2022-09-01T03:56:37;3.23;;;2.93;;
46308;SDS011;32037;50.820;6.494;2022-09-01T03:59:12;3.10;;;2.90;;
46308;SDS011;32037;50.820;6.494;2022-09-01T04:01:45;3.10;;;2.90;;
46308;SDS011;32037;50.820;6.494;2022-09-01T04:04:14;3.50;;;3.20;;
46308;SDS011;32037;50.820;6.494;2022-09-01T04:06:43;3.60;;;3.30;;
46308;SDS011;32037;50.820;6.494;2022-09-01T04:09:13;3.30;;;3.10;;
46308;SDS011;32037;50.820;6.494;2022-09-01T04:11:44;3.10;;;2.90;;
46308;SDS011;32037;50.820;6.494;2022-09-01T04:14:14;3.67;;;3.37;;
46308;SDS011;32037;50.820;6.494;2022-09-01T04:16:45;3.37;;;3.17;;
46308;SDS011;32037;50.820;6.494;2022-09-01T04:19:32;4.70;;;3.37;;
46308;SDS011;32037;50.820;6.494;2022-09-01T04:22:06;3.20;;;2.90;;
46308;SDS011;32037;50.820;6.494;2022-09-01T04:24:44;3.83;;;3.53;;
46308;SDS011;32037;50.820;6.494;2022-09-01T04:27:26;2.97;;;2.77;;
46308;SDS011;32037;50.820;6.494;2022-09-01T04:29:55;3.93;;;3.63;;
46308;SDS011;32037;50.820;6.494;2022-09-01T04:32:27;3.57;;;3.37;;
46308;SDS011;32037;50.820;6.494;2022-09-01T04:34:59;3.37;;;3.07;;
46308;SDS011;32037;50.820;6.494;2022-09-01T04:37:27;3.60;;;3.30;;
46308;SDS011;32037;50.820;6.494;2022-09-01T04:40:00;4.07;;;3.67;;
46308;SDS011;32037;50.820;6.494;2022-09-01T04:42:32;3.67;;;3.03;;
46308;SDS011;32037;50.820;6.494;2022-09-01T04:45:02;3.10;;;2.90;;
46308;SDS011;32037;50.820;6.494;2022-09-01T04:47:42;3.93;;;3.63;;
46308;SDS011;32037;50.820;6.494;2022-09-01T04:50:15;3.87;;;3.47;;
46308;SDS011;32037;50.820;6.494;2022-09-01T04:53:04;3.90;;;3.50;;
46308;SDS011;32037;50.820;6.494;2022-09-01T04:55:38;3.50;;;3.23;;
46308;SDS011;32037;50.820;6.494;2022-09-01T04:58:11;3.30;;;3.10;;
46308;SDS011;32037;50.820;6.494;2022-09-01T05:00:44;3.60;;;3.30;;
46308;SDS011;32037;50.820;6.494;2022-09-01T05:03:16;3.33;;;3.00;;
46308;SDS011;32037;50.820;6.494;2022-09-01T05:05:56;3.57;;;3.27;;
46308;SDS011;32037;50.820;6.494;2022-09-01T05:08:30;4.13;;;3.83;;
46308;SDS011;32037;50.820;6.494;2022-09-01T05:11:05;3.70;;;3.13;;
46308;SDS011;32037;50.820;6.494;2022-09-01T05:13:47;3.63;;;3.33;;
46308;SDS011;32037;50.820;6.494;2022-09-01T05:16:17;3.73;;;3.00;;
46308;SDS011;32037;50.820;6.494;2022-09-01T05:18:53;3.40;;;3.10;;
46308;SDS011;32037;50.820;6.494;2022-09-01T05:21:25;3.17;;;2.97;;
46308;SDS011;32037;50.820;6.494;2022-09-01T05:23:56;3.30;;;3.10;;
46308;SDS011;32037;50.820;6.494;2022-09-01T05:26:29;3.43;;;3.13;;
46308;SDS011;32037;50.820;6.494;2022-09-01T05:29:03;3.30;;;3.00;;
46308;SDS011;32037;50.820;6.494;2022-09-01T05:31:36;3.33;;;3.03;;
46308;SDS011;32037;50.820;6.494;2022-09-01T05:34:04;3.27;;;3.03;;
46308;SDS011;32037;50.820;6.494;2022-09-01T05:36:36;3.17;;;2.97;;
46308;SDS011;32037;50.820;6.494;2022-09-01T05:39:10;3.63;;;3.33;;
46308;SDS011;32037;50.820;6.494;2022-09-01T05:41:38;3.67;;;3.37;;
46308;SDS011;32037;50.820;6.494;2022-09-01T05:44:08;3.10;;;2.90;;
46308;SDS011;32037;50.820;6.494;2022-09-01T05:46:37;3.40;;;3.20;;
46308;SDS011;32037;50.820;6.494;2022-09-01T05:49:08;3.40;;;3.10;;
46308;SDS011;32037;50.820;6.494;2022-09-01T05:51:39;3.70;;;3.40;;
46308;SDS011;32037;50.820;6.494;2022-09-01T05:54:11;3.30;;;3.00;;
46308;SDS011;32037;50.820;6.494;2022-09-01T05:56:41;4.00;;;3.70;;
46308;SDS011;32037;50.820;6.494;2022-09-01T05:59:18;3.77;;;3.57;;
46308;SDS011;32037;50.820;6.494;2022-09-01T06:01:56;4.00;;;3.50;;
46308;SDS011;32037;50.820;6.494;2022-09-01T06:04:26;3.27;;;2.97;;
46308;SDS011;32037;50.820;6.494;2022-09-01T06:07:01;3.60;;;3.30;;
46308;SDS011;32037;50.820;6.494;2022-09-01T06:09:40;3.50;;;3.30;;
46308;SDS011;32037;50.820;6.494;2022-09-01T06:12:10;4.27;;;3.97;;
46308;SDS011;32037;50.820;6.494;2022-09-01T06:14:47;3.30;;;3.00;;
46308;SDS011;32037;50.820;6.494;2022-09-01T06:17:17;3.17;;;2.97;;
46308;SDS011;32037;50.820;6.494;2022-09-01T06:19:51;3.43;;;2.97;;
46308;SDS011;32037;50.820;6.494;2022-09-01T06:22:22;3.63;;;3.40;;
46308;SDS011;32037;50.820;6.494;2022-09-01T06:24:52;3.70;;;3.40;;
46308;SDS011;32037;50.820;6.494;2022-09-01T06:27:29;3.40;;;3.10;;
46308;SDS011;32037;50.820;6.494;2022-09-01T06:30:01;3.10;;;2.90;;
46308;SDS011;32037;50.820;6.494;2022-09-01T06:32:51;3.63;;;3.07;;
46308;SDS011;32037;50.820;6.494;2022-09-01T06:35:20;4.07;;;3.77;;
46308;SDS011;32037;50.820;6.494;2022-09-01T06:37:55;3.17;;;2.97;;
46308;SDS011;32037;50.820;6.494;2022-09-01T06:40:42;3.30;;;3.10;;
46308;SDS011;32037;50.820;6.494;2022-09-01T06:43:13;3.47;;;3.10;;
46308;SDS011;32037;50.820;6.494;2022-09-01T06:46:06;3.43;;;3.17;;
46308;SDS011;32037;50.820;6.494;2022-09-01T06:48:36;3.13;;;2.93;;
46308;SDS011;32037;50.820;6.494;2022-09-01T06:51:13;3.50;;;3.30;;
46308;SDS011;32037;50.820;6.494;2022-09-01T06:53:50;3.40;;;2.87;;
46308;SDS011;32037;50.820;6.494;2022-09-01T06:56:25;2.90;;;2.70;;
46308;SDS011;32037;50.820;6.494;2022-09-01T06:58:58;3.33;;;3.03;;
46308;SDS011;32037;50.820;6.494;2022-09-01T07:01:31;3.57;;;3.30;;
46308;SDS011;32037;50.820;6.494;2022-09-01T07:04:00;3.50;;;3.00;;
46308;SDS011;32037;50.820;6.494;2022-09-01T07:06:58;2.80;;;2.60;;
46308;SDS011;32037;50.820;6.494;2022-09-01T07:10:09;2.70;;;2.50;;
46308;SDS011;32037;50.820;6.494;2022-09-01T07:13:08;2.80;;;2.60;;
46308;SDS011;32037;50.820;6.494;2022-09-01T07:15:37;3.13;;;2.90;;
46308;SDS011;32037;50.820;6.494;2022-09-01T07:18:33;3.00;;;2.80;;
46308;SDS011;32037;50.820;6.494;2022-09-01T07:21:04;4.77;;;2.80;;
46308;SDS011;32037;50.820;6.494;2022-09-01T07:23:55;5.23;;;2.20;;
46308;SDS011;32037;50.820;6.494;2022-09-01T07:27:07;4.77;;;2.23;;
46308;SDS011;32037;50.820;6.494;2022-09-01T07:29:37;2.53;;;2.33;;
46308;SDS011;32037;50.820;6.494;2022-09-01T07:32:07;5.10;;;2.80;;
46308;SDS011;32037;50.820;6.494;2022-09-01T07:34:58;2.83;;;2.53;;
46308;SDS011;32037;50.820;6.494;2022-09-01T07:37:28;3.50;;;2.50;;
46308;SDS011;32037;50.820;6.494;2022-09-01T07:40:18;2.50;;;2.07;;
46308;SDS011;32037;50.820;6.494;2022-09-01T07:43:26;3.17;;;2.33;;
46308;SDS011;32037;50.820;6.494;2022-09-01T07:46:17;2.63;;;2.20;;
46308;SDS011;32037;50.820;6.494;2022-09-01T07:49:11;2.53;;;2.33;;
46308;SDS011;32037;50.820;6.494;2022-09-01T07:52:01;2.97;;;2.30;;
46308;SDS011;32037;50.820;6.494;2022-09-01T07:54:31;2.50;;;2.30;;
46308;SDS011;32037;50.820;6.494;2022-09-01T07:57:02;2.63;;;2.43;;
46308;SDS011;32037;50.820;6.494;2022-09-01T07:59:33;2.70;;;2.50;;
46308;SDS011;32037;50.820;6.494;2022-09-01T08:02:09;2.47;;;2.27;;
46308;SDS011;32037;50.820;6.494;2022-09-01T08:04:41;2.10;;;2.00;;
46308;SDS011;32037;50.820;6.494;2022-09-01T08:07:11;2.40;;;2.20;;
46308;SDS011;32037;50.820;6.494;2022-09-01T08:09:42;4.35;;;2.70;;
46308;SDS011;32037;50.820;6.494;2022-09-01T08:12:12;4.67;;;2.37;;
46308;SDS011;32037;50.820;6.494;2022-09-01T08:14:45;2.43;;;2.13;;
46308;SDS011;32037;50.820;6.494;2022-09-01T08:17:39;2.40;;;2.30;;
46308;SDS011;32037;50.820;6.494;2022-09-01T08:20:28;2.43;;;2.20;;
46308;SDS011;32037;50.820;6.494;2022-09-01T08:23:18;4.93;;;2.07;;
46308;SDS011;32037;50.820;6.494;2022-09-01T08:25:52;2.73;;;2.03;;
46308;SDS011;32037;50.820;6.494;2022-09-01T08:28:20;3.20;;;2.40;;
46308;SDS011;32037;50.820;6.494;2022-09-01T08:30:54;2.57;;;2.37;;
46308;SDS011;32037;50.820;6.494;2022-09-01T08:33:23;2.17;;;1.97;;
46308;SDS011;32037;50.820;6.494;2022-09-01T08:35:52;2.80;;;2.60;;
46308;SDS011;32037;50.820;6.494;2022-09-01T08:38:26;2.80;;;2.23;;
46308;SDS011;32037;50.820;6.494;2022-09-01T08:40:56;2.20;;;2.00;;
46308;SDS011;32037;50.820;6.494;2022-09-01T08:43:36;2.00;;;1.90;;
46308;SDS011;32037;50.820;6.494;2022-09-01T08:46:13;4.00;;;1.80;;
46308;SDS011;32037;50.820;6.494;2022-09-01T08:48:49;4.73;;;2.30;;
46308;SDS011;32037;50.820;6.494;2022-09-01T08:52:05;2.40;;;2.00;;
46308;SDS011;32037;50.820;6.494;2022-09-01T08:54:43;2.53;;;1.70;;
46308;SDS011;32037;50.820;6.494;2022-09-01T08:57:15;2.20;;;2.00;;
46308;SDS011;32037;50.820;6.494;2022-09-01T09:00:16;2.00;;;1.90;;
46308;SDS011;32037;50.820;6.494;2022-09-01T09:02:51;1.90;;;1.80;;
46308;SDS011;32037;50.820;6.494;2022-09-01T09:05:29;2.30;;;2.10;;
46308;SDS011;32037;50.820;6.494;2022-09-01T09:08:08;2.27;;;1.80;;
46308;SDS011;32037;50.820;6.494;2022-09-01T09:11:01;2.23;;;2.03;;
46308;SDS011;32037;50.820;6.494;2022-09-01T09:13:37;2.73;;;2.30;;
46308;SDS011;32037;50.820;6.494;2022-09-01T09:16:14;1.90;;;1.80;;
46308;SDS011;32037;50.820;6.494;2022-09-01T09:18:49;2.27;;;1.80;;
46308;SDS011;32037;50.820;6.494;2022-09-01T09:21:22;1.97;;;1.77;;
46308;SDS011;32037;50.820;6.494;2022-09-01T09:23:57;1.90;;;1.80;;
46308;SDS011;32037;50.820;6.494;2022-09-01T09:26:32;1.97;;;1.87;;
46308;SDS011;32037;50.820;6.494;2022-09-01T09:29:08;2.03;;;1.83;;
46308;SDS011;32037;50.820;6.494;2022-09-01T09:31:37;2.10;;;1.93;;
46308;SDS011;32037;50.820;6.494;2022-09-01T09:34:15;1.90;;;1.57;;
46308;SDS011;32037;50.820;6.494;2022-09-01T09:36:45;1.90;;;1.80;;
46308;SDS011;32037;50.820;6.494;2022-09-01T09:39:21;1.40;;;1.30;;
46308;SDS011;32037;50.820;6.494;2022-09-01T09:42:01;2.17;;;1.80;;
46308;SDS011;32037;50.820;6.494;2022-09-01T09:44:38;2.40;;;2.20;;
46308;SDS011;32037;50.820;6.494;2022-09-01T09:47:10;1.83;;;1.70;;
46308;SDS011;32037;50.820;6.494;2022-09-01T09:50:11;1.60;;;1.50;;
46308;SDS011;32037;50.820;6.494;2022-09-01T09:52:46;2.10;;;1.90;;
46308;SDS011;32037;50.820;6.494;2022-09-01T09:55:18;2.23;;;1.90;;
46308;SDS011;32037;50.820;6.494;2022-09-01T09:57:52;2.30;;;2.10;;
46308;SDS011;32037;50.820;6.494;2022-09-01T10:00:24;1.93;;;1.83;;
46308;SDS011;32037;50.820;6.494;2022-09-01T10:02:57;1.63;;;1.53;;
46308;SDS011;32037;50.820;6.494;2022-09-01T10:05:37;1.70;;;1.60;;
46308;SDS011;32037;50.820;6.494;2022-09-01T10:08:09;1.80;;;1.70;;
46308;SDS011;32037;50.820;6.494;2022-09-01T10:10:46;1.70;;;1.60;;
46308;SDS011;32037;50.820;6.494;2022-09-01T10:13:26;3.20;;;1.90;;
46308;SDS011;32037;50.820;6.494;2022-09-01T10:15:59;1.60;;;1.50;;
46308;SDS011;32037;50.820;6.494;2022-09-01T10:18:32;1.50;;;1.40;;
46308;SDS011;32037;50.820;6.494;2022-09-01T10:21:07;1.50;;;1.40;;
46308;SDS011;32037;50.820;6.494;2022-09-01T10:23:38;1.60;;;1.47;;
46308;SDS011;32037;50.820;6.494;2022-09-01T10:26:11;2.40;;;1.93;;
46308;SDS011;32037;50.820;6.494;2022-09-01T10:28:48;1.97;;;1.73;;
46308;SDS011;32037;50.820;6.494;2022-09-01T10:31:21;1.67;;;1.50;;
46308;SDS011;32037;50.820;6.494;2022-09-01T10:33:58;1.90;;;1.70;;
46308;SDS011;32037;50.820;6.494;2022-09-01T10:36:31;1.67;;;1.57;;
46308;SDS011;32037;50.820;6.494;2022-09-01T10:39:03;2.70;;;1.43;;
46308;SDS011;32037;50.820;6.494;2022-09-01T10:44:35;2.00;;;1.90;;
46308;SDS011;32037;50.820;6.494;2022-09-01T10:47:07;1.57;;;1.40;;
46308;SDS011;32037;50.820;6.494;2022-09-01T10:55:22;4.53;;;1.60;;
46308;SDS011;32037;50.820;6.494;2022-09-01T10:58:12;2.70;;;2.03;;
46308;SDS011;32037;50.820;6.494;2022-09-01T11:01:12;1.83;;;1.63;;
46308;SDS011;32037;50.820;6.494;2022-09-01T11:04:01;1.60;;;1.50;;
46308;SDS011;32037;50.820;6.494;2022-09-01T11:09:38;1.57;;;1.47;;
46308;SDS011;32037;50.820;6.494;2022-09-01T11:18:07;1.30;;;1.20;;
46308;SDS011;32037;50.820;6.494;2022-09-01T11:20:43;2.00;;;1.33;;
46308;SDS011;32037;50.820;6.494;2022-09-01T11:23:19;1.70;;;1.60;;
46308;SDS011;32037;50.820;6.494;2022-09-01T11:25:51;1.53;;;1.40;;
46308;SDS011;32037;50.820;6.494;2022-09-01T11:28:40;1.40;;;1.30;;
46308;SDS011;32037;50.820;6.494;2022-09-01T11:31:15;1.67;;;1.50;;
46308;SDS011;32037;50.820;6.494;2022-09-01T11:34:11;1.60;;;1.50;;
46308;SDS011;32037;50.820;6.494;2022-09-01T11:39:33;2.23;;;1.50;;
46308;SDS011;32037;50.820;6.494;2022-09-01T11:42:08;1.50;;;1.40;;
46308;SDS011;32037;50.820;6.494;2022-09-01T11:44:46;2.20;;;1.90;;
46308;SDS011;32037;50.820;6.494;2022-09-01T11:47:20;1.40;;;1.30;;
46308;SDS011;32037;50.820;6.494;2022-09-01T11:49:56;1.90;;;1.80;;
46308;SDS011;32037;50.820;6.494;2022-09-01T11:52:28;1.40;;;1.30;;
46308;SDS011;32037;50.820;6.494;2022-09-01T11:54:59;1.57;;;1.47;;
46308;SDS011;32037;50.820;6.494;2022-09-01T11:57:29;1.60;;;1.50;;
46308;SDS011;32037;50.820;6.494;2022-09-01T11:59:59;1.70;;;1.60;;
46308;SDS011;32037;50.820;6.494;2022-09-01T12:02:42;1.67;;;1.57;;
46308;SDS011;32037;50.820;6.494;2022-09-01T12:05:24;1.53;;;1.43;;
46308;SDS011;32037;50.820;6.494;2022-09-01T12:07:57;1.70;;;1.47;;
46308;SDS011;32037;50.820;6.494;2022-09-01T12:10:28;2.30;;;1.67;;
46308;SDS011;32037;50.820;6.494;2022-09-01T12:13:00;1.80;;;1.70;;
46308;SDS011;32037;50.820;6.494;2022-09-01T12:15:30;1.50;;;1.40;;
46308;SDS011;32037;50.820;6.494;2022-09-01T12:20:50;1.70;;;1.60;;
46308;SDS011;32037;50.820;6.494;2022-09-01T12:23:22;1.50;;;1.40;;
46308;SDS011;32037;50.820;6.494;2022-09-01T12:25:53;1.73;;;1.60;;
46308;SDS011;32037;50.820;6.494;2022-09-01T12:28:23;1.90;;;1.70;;
46308;SDS011;32037;50.820;6.494;2022-09-01T12:30:58;2.33;;;1.70;;
46308;SDS011;32037;50.820;6.494;2022-09-01T12:33:33;1.90;;;1.70;;
46308;SDS011;32037;50.820;6.494;2022-09-01T12:36:20;1.67;;;1.40;;
46308;SDS011;32037;50.820;6.494;2022-09-01T12:38:52;1.90;;;1.80;;
46308;SDS011;32037;50.820;6.494;2022-09-01T12:41:23;1.57;;;1.47;;
46308;SDS011;32037;50.820;6.494;2022-09-01T12:43:54;1.97;;;1.53;;
46308;SDS011;32037;50.820;6.494;2022-09-01T12:46:39;2.20;;;1.87;;
46308;SDS011;32037;50.820;6.494;2022-09-01T12:49:15;1.67;;;1.50;;
46308;SDS011;32037;50.820;6.494;2022-09-01T12:51:46;2.30;;;1.67;;
46308;SDS011;32037;50.820;6.494;2022-09-01T12:54:15;3.00;;;2.30;;
46308;SDS011;32037;50.820;6.494;2022-09-01T12:56:51;1.77;;;1.67;;
46308;SDS011;32037;50.820;6.494;2022-09-01T12:59:22;1.47;;;1.37;;
46308;SDS011;32037;50.820;6.494;2022-09-01T13:04:54;2.20;;;2.10;;
46308;SDS011;32037;50.820;6.494;2022-09-01T13:07:45;1.70;;;1.60;;
46308;SDS011;32037;50.820;6.494;2022-09-01T13:10:14;1.40;;;1.30;;
46308;SDS011;32037;50.820;6.494;2022-09-01T13:12:42;1.90;;;1.70;;
46308;SDS011;32037;50.820;6.494;2022-09-01T13:15:12;2.10;;;1.93;;
46308;SDS011;32037;50.820;6.494;2022-09-01T13:17:40;2.17;;;2.07;;
46308;SDS011;32037;50.820;6.494;2022-09-01T13:20:09;1.73;;;1.63;;
46308;SDS011;32037;50.820;6.494;2022-09-01T13:22:39;2.00;;;1.80;;
46308;SDS011;32037;50.820;6.494;2022-09-01T13:25:09;2.30;;;2.10;;
46308;SDS011;32037;50.820;6.494;2022-09-01T13:27:38;2.17;;;1.97;;
46308;SDS011;32037;50.820;6.494;2022-09-01T13:30:10;2.70;;;2.50;;
46308;SDS011;32037;50.820;6.494;2022-09-01T13:32:41;2.10;;;2.00;;
46308;SDS011;32037;50.820;6.494;2022-09-01T13:35:30;2.23;;;2.03;;
46308;SDS011;32037;50.820;6.494;2022-09-01T13:37:59;2.33;;;2.10;;
46308;SDS011;32037;50.820;6.494;2022-09-01T13:40:29;2.00;;;1.83;;
46308;SDS011;32037;50.820;6.494;2022-09-01T13:42:58;2.00;;;1.90;;
46308;SDS011;32037;50.820;6.494;2022-09-01T13:45:27;1.90;;;1.80;;
46308;SDS011;32037;50.820;6.494;2022-09-01T13:47:56;2.30;;;1.63;;
46308;SDS011;32037;50.820;6.494;2022-09-01T13:50:45;2.17;;;2.07;;
46308;SDS011;32037;50.820;6.494;2022-09-01T13:53:36;3.63;;;1.90;;
46308;SDS011;32037;50.820;6.494;2022-09-01T13:56:06;2.00;;;1.90;;
46308;SDS011;32037;50.820;6.494;2022-09-01T13:58:34;2.97;;;2.23;;
46308;SDS011;32037;50.820;6.494;2022-09-01T14:01:02;2.17;;;2.00;;
46308;SDS011;32037;50.820;6.494;2022-09-01T14:03:33;1.90;;;1.80;;
46308;SDS011;32037;50.820;6.494;2022-09-01T14:06:01;2.80;;;2.60;;
46308;SDS011;32037;50.820;6.494;2022-09-01T14:08:30;2.07;;;1.97;;
46308;SDS011;32037;50.820;6.494;2022-09-01T14:10:59;2.10;;;2.00;;
46308;SDS011;32037;50.820;6.494;2022-09-01T14:13:30;2.30;;;2.20;;
46308;SDS011;32037;50.820;6.494;2022-09-01T14:15:58;1.70;;;1.60;;
46308;SDS011;32037;50.820;6.494;2022-09-01T14:18:27;1.73;;;1.63;;
46308;SDS011;32037;50.820;6.494;2022-09-01T14:20:58;2.00;;;1.87;;
46308;SDS011;32037;50.820;6.494;2022-09-01T14:23:27;2.87;;;2.67;;
46308;SDS011;32037;50.820;6.494;2022-09-01T14:25:56;2.17;;;1.97;;
46308;SDS011;32037;50.820;6.494;2022-09-01T14:28:25;2.33;;;2.23;;
46308;SDS011;32037;50.820;6.494;2022-09-01T14:30:55;2.20;;;2.10;;
46308;SDS011;32037;50.820;6.494;2022-09-01T14:33:22;2.10;;;2.00;;
46308;SDS011;32037;50.820;6.494;2022-09-01T14:35:52;2.10;;;2.00;;
46308;SDS011;32037;50.820;6.494;2022-09-01T14:38:21;2.43;;;2.23;;
46308;SDS011;32037;50.820;6.494;2022-09-01T14:40:49;2.30;;;1.83;;
46308;SDS011;32037;50.820;6.494;2022-09-01T14:43:19;2.57;;;2.37;;
46308;SDS011;32037;50.820;6.494;2022-09-01T14:45:47;2.10;;;2.00;;
46308;SDS011;32037;50.820;6.494;2022-09-01T14:48:18;2.30;;;2.10;;
46308;SDS011;32037;50.820;6.494;2022-09-01T14:50:47;2.30;;;2.10;;
46308;SDS011;32037;50.820;6.494;2022-09-01T14:53:16;2.07;;;1.80;;
46308;SDS011;32037;50.820;6.494;2022-09-01T14:55:45;2.30;;;2.10;;
46308;SDS011;32037;50.820;6.494;2022-09-01T14:58:18;1.80;;;1.70;;
46308;SDS011;32037;50.820;6.494;2022-09-01T15:00:46;2.27;;;2.10;;
46308;SDS011;32037;50.820;6.494;2022-09-01T15:03:15;2.10;;;2.00;;
46308;SDS011;32037;50.820;6.494;2022-09-01T15:05:49;1.90;;;1.80;;
46308;SDS011;32037;50.820;6.494;2022-09-01T15:08:18;2.33;;;2.13;;
46308;SDS011;32037;50.820;6.494;2022-09-01T15:10:49;2.37;;;2.23;;
46308;SDS011;32037;50.820;6.494;2022-09-01T15:13:17;2.53;;;2.33;;
46308;SDS011;32037;50.820;6.494;2022-09-01T15:15:46;2.00;;;1.80;;
46308;SDS011;32037;50.820;6.494;2022-09-01T15:18:14;2.63;;;2.43;;
46308;SDS011;32037;50.820;6.494;2022-09-01T15:20:42;2.70;;;2.50;;
46308;SDS011;32037;50.820;6.494;2022-09-01T15:23:16;2.07;;;1.97;;
46308;SDS011;32037;50.820;6.494;2022-09-01T15:25:46;2.40;;;2.20;;
46308;SDS011;32037;50.820;6.494;2022-09-01T15:28:15;2.40;;;2.20;;
46308;SDS011;32037;50.820;6.494;2022-09-01T15:30:45;2.40;;;2.30;;
46308;SDS011;32037;50.820;6.494;2022-09-01T15:33:13;2.43;;;2.23;;
46308;SDS011;32037;50.820;6.494;2022-09-01T15:35:42;2.73;;;2.53;;
46308;SDS011;32037;50.820;6.494;2022-09-01T15:38:14;2.97;;;2.77;;
46308;SDS011;32037;50.820;6.494;2022-09-01T15:40:46;3.07;;;2.87;;
46308;SDS011;32037;50.820;6.494;2022-09-01T15:43:23;2.50;;;2.30;;
46308;SDS011;32037;50.820;6.494;2022-09-01T15:45:53;2.23;;;2.00;;
46308;SDS011;32037;50.820;6.494;2022-09-01T15:48:24;2.90;;;2.67;;
46308;SDS011;32037;50.820;6.494;2022-09-01T15:50:54;2.93;;;2.73;;
46308;SDS011;32037;50.820;6.494;2022-09-01T15:53:38;2.77;;;2.53;;
46308;SDS011;32037;50.820;6.494;2022-09-01T15:56:06;4.13;;;2.77;;